createdAt,value
2023-05-08T00:01:02.778Z,6.70
2023-05-08T00:03:36.564Z,5.10
2023-05-08T00:06:10.885Z,6.00
2023-05-08T00:08:44.218Z,4.90
2023-05-08T00:11:17.489Z,4.30
2023-05-08T00:13:50.631Z,4.70
2023-05-08T00:16:23.962Z,5.10
2023-05-08T00:18:57.209Z,5.90
2023-05-08T00:21:31.319Z,7.10
2023-05-08T00:24:04.577Z,7.10
2023-05-08T00:26:38.078Z,6.10
2023-05-08T00:29:11.427Z,5.80
2023-05-08T00:31:44.811Z,4.30
2023-05-08T00:34:18.365Z,5.60
2023-05-08T00:36:51.659Z,4.70
2023-05-08T00:39:24.957Z,4.00
2023-05-08T00:41:58.169Z,5.30
2023-05-08T00:44:31.414Z,6.70
2023-05-08T00:47:04.956Z,3.60
2023-05-08T00:49:39.174Z,5.30
2023-05-08T00:52:12.880Z,5.10
2023-05-08T00:54:47.478Z,6.10
2023-05-08T00:57:22.044Z,6.10
2023-05-08T00:59:56.974Z,4.30
2023-05-08T01:02:32.038Z,5.80
2023-05-08T01:05:06.089Z,5.80
2023-05-08T01:07:39.877Z,3.00
2023-05-08T01:10:14.647Z,5.10
2023-05-08T01:13:07.203Z,5.70
2023-05-08T01:15:48.522Z,5.50
2023-05-08T01:18:29.410Z,5.30
2023-05-08T01:21:17.109Z,4.00
2023-05-08T01:24:20.342Z,4.10
2023-05-08T01:27:38.974Z,5.10
2023-05-08T01:30:52.350Z,5.10
2023-05-08T01:33:36.121Z,4.60
2023-05-08T01:36:24.648Z,4.90
2023-05-08T01:39:16.656Z,3.90
2023-05-08T01:42:01.812Z,6.10
2023-05-08T01:44:42.717Z,4.20
2023-05-08T01:47:20.945Z,3.70
2023-05-08T01:50:16.188Z,4.50
2023-05-08T01:52:54.260Z,2.80
2023-05-08T01:55:36.581Z,4.20
2023-05-08T01:58:13.821Z,5.30
2023-05-08T02:00:49.180Z,5.10
2023-05-08T02:03:27.050Z,3.70
2023-05-08T02:06:04.469Z,5.90
2023-05-08T02:08:38.857Z,5.40
2023-05-08T02:11:15.869Z,3.90
2023-05-08T02:13:52.094Z,4.50
2023-05-08T02:16:27.998Z,4.10
2023-05-08T02:19:05.781Z,3.90
2023-05-08T02:21:40.086Z,5.00
2023-05-08T02:24:14.554Z,3.60
2023-05-08T02:26:49.461Z,2.80
2023-05-08T02:29:24.908Z,4.90
2023-05-08T02:32:02.197Z,4.00
2023-05-08T02:34:39.465Z,6.10
2023-05-08T02:37:17.761Z,4.80
2023-05-08T02:39:52.553Z,4.60
2023-05-08T02:42:26.280Z,4.70
2023-05-08T02:45:00.146Z,2.90
2023-05-08T02:47:44.617Z,4.10
2023-05-08T02:50:25.450Z,2.20
2023-05-08T02:53:07.457Z,3.30
2023-05-08T02:55:49.758Z,4.10
2023-05-08T02:58:32.261Z,3.80
2023-05-08T03:01:14.976Z,4.00
2023-05-08T03:03:59.012Z,4.80
2023-05-08T03:06:41.352Z,2.90
2023-05-08T03:09:22.626Z,4.40
2023-05-08T03:12:10.386Z,4.90
2023-05-08T03:14:53.175Z,4.10
2023-05-08T03:17:29.742Z,5.60
2023-05-08T03:20:10.206Z,3.90
2023-05-08T03:22:48.535Z,4.10
2023-05-08T03:25:23.731Z,5.60
2023-05-08T03:27:59.597Z,4.80
2023-05-08T03:30:37.664Z,4.40
2023-05-08T03:33:16.251Z,4.80
2023-05-08T03:35:51.366Z,4.60
2023-05-08T03:38:25.334Z,5.50
2023-05-08T03:41:00.414Z,3.60
2023-05-08T03:43:34.753Z,4.80
2023-05-08T03:46:09.065Z,4.70
2023-05-08T03:48:44.482Z,4.40
2023-05-08T03:51:19.922Z,4.20
2023-05-08T03:53:53.170Z,3.80
2023-05-08T03:56:26.412Z,4.10
2023-05-08T03:59:10.899Z,3.70
2023-05-08T04:01:55.401Z,4.50
2023-05-08T04:04:42.758Z,4.50
2023-05-08T04:07:29.783Z,5.00
2023-05-08T04:10:11.420Z,4.00
2023-05-08T04:12:56.500Z,2.90
2023-05-08T04:15:38.231Z,3.90
2023-05-08T04:18:19.029Z,2.90
2023-05-08T04:20:55.778Z,5.80
2023-05-08T04:23:31.653Z,5.30
2023-05-08T04:26:06.243Z,5.30
2023-05-08T04:28:40.258Z,5.10
2023-05-08T04:31:15.014Z,5.40
2023-05-08T04:33:49.218Z,4.80
2023-05-08T04:36:23.828Z,4.70
2023-05-08T04:38:58.662Z,5.00
2023-05-08T04:41:33.268Z,3.90
2023-05-08T04:44:07.128Z,5.10
2023-05-08T04:46:41.272Z,4.10
2023-05-08T04:49:14.592Z,3.90
2023-05-08T04:51:47.811Z,4.20
2023-05-08T04:54:21.259Z,4.30
2023-05-08T04:56:54.436Z,4.70
2023-05-08T04:59:27.672Z,3.80
2023-05-08T05:02:02.576Z,4.30
2023-05-08T05:04:36.694Z,4.40
2023-05-08T05:07:10.913Z,3.80
2023-05-08T05:09:44.465Z,4.40
2023-05-08T05:12:17.707Z,5.10
2023-05-08T05:14:51.741Z,4.40
2023-05-08T05:17:25.200Z,4.60
2023-05-08T05:19:58.588Z,4.20
2023-05-08T05:22:33.182Z,4.20
2023-05-08T05:25:07.632Z,4.80
2023-05-08T05:27:41.380Z,5.00
2023-05-08T05:30:16.281Z,4.60
2023-05-08T05:32:50.208Z,4.90
2023-05-08T05:35:25.451Z,4.40
2023-05-08T05:37:59.598Z,4.80
2023-05-08T05:40:33.043Z,5.10
2023-05-08T05:43:10.359Z,5.30
2023-05-08T05:45:43.773Z,4.70
2023-05-08T05:48:17.258Z,4.20
2023-05-08T05:50:51.638Z,4.30
2023-05-08T05:53:24.861Z,4.90
2023-05-08T05:55:58.950Z,4.80
2023-05-08T05:58:32.201Z,5.10
2023-05-08T06:01:05.964Z,5.00
2023-05-08T06:03:39.331Z,4.90
2023-05-08T06:06:13.469Z,4.60
2023-05-08T06:08:46.965Z,4.90
2023-05-08T06:11:20.140Z,5.60
2023-05-08T06:13:53.579Z,4.70
2023-05-08T06:16:26.872Z,4.40
2023-05-08T06:19:00.174Z,3.70
2023-05-08T06:21:34.637Z,5.20
2023-05-08T06:24:08.537Z,5.10
2023-05-08T06:26:41.667Z,4.20
2023-05-08T06:29:14.886Z,5.40
2023-05-08T06:31:48.021Z,4.20
2023-05-08T06:34:21.209Z,4.80
2023-05-08T06:36:54.426Z,4.50
2023-05-08T06:39:27.853Z,3.70
2023-05-08T06:42:01.302Z,3.70
2023-05-08T06:44:37.457Z,5.10
2023-05-08T06:47:10.784Z,4.50
2023-05-08T06:49:44.320Z,4.70
2023-05-08T06:52:17.602Z,4.30
2023-05-08T06:54:50.859Z,4.50
2023-05-08T06:57:27.096Z,4.30
2023-05-08T07:00:00.309Z,4.40
2023-05-08T07:02:33.474Z,4.60
2023-05-08T07:05:07.890Z,4.60
2023-05-08T07:07:42.747Z,3.70
2023-05-08T07:10:16.884Z,4.50
2023-05-08T07:12:50.158Z,4.00
2023-05-08T07:15:26.511Z,3.70
2023-05-08T07:18:00.717Z,4.70
2023-05-08T07:20:34.066Z,4.90
2023-05-08T07:23:07.878Z,4.30
2023-05-08T07:25:41.483Z,5.10
2023-05-08T07:28:14.604Z,4.90
2023-05-08T07:30:48.417Z,4.00
2023-05-08T07:33:22.724Z,4.40
2023-05-08T07:35:55.958Z,3.70
2023-05-08T07:38:29.290Z,4.20
2023-05-08T07:41:02.887Z,3.90
2023-05-08T07:43:37.152Z,4.40
2023-05-08T07:46:16.954Z,4.10
2023-05-08T07:48:50.406Z,4.60
2023-05-08T07:51:23.705Z,3.90
2023-05-08T07:53:57.052Z,3.90
2023-05-08T07:56:30.529Z,4.10
2023-05-08T07:59:03.823Z,4.20
2023-05-08T08:01:37.011Z,4.70
2023-05-08T08:04:12.263Z,3.70
2023-05-08T08:06:46.765Z,3.60
2023-05-08T08:09:20.040Z,4.50
2023-05-08T08:11:53.252Z,3.90
2023-05-08T08:14:26.535Z,3.00
2023-05-08T08:16:59.951Z,3.30
2023-05-08T08:19:33.564Z,3.90
2023-05-08T08:22:07.349Z,4.00
2023-05-08T08:24:40.964Z,3.70
2023-05-08T08:27:14.781Z,3.10
2023-05-08T08:29:48.063Z,3.60
2023-05-08T08:32:21.308Z,3.40
2023-05-08T08:34:54.578Z,3.80
2023-05-08T08:37:27.741Z,3.70
2023-05-08T08:40:01.561Z,3.80
2023-05-08T08:42:35.184Z,3.40
2023-05-08T08:45:10.346Z,4.00
2023-05-08T08:47:46.647Z,3.00
2023-05-08T08:50:23.420Z,3.00
2023-05-08T08:53:07.499Z,3.80
2023-05-08T08:55:48.243Z,4.50
2023-05-08T08:58:33.123Z,4.10
2023-05-08T09:01:09.244Z,3.40
2023-05-08T09:03:42.959Z,4.20
2023-05-08T09:06:16.703Z,3.90
2023-05-08T09:08:51.331Z,2.60
2023-05-08T09:11:24.510Z,3.90
2023-05-08T09:13:59.479Z,3.80
2023-05-08T09:16:32.818Z,3.80
2023-05-08T09:19:06.756Z,3.30
2023-05-08T09:21:40.466Z,4.70
2023-05-08T09:24:13.922Z,5.20
2023-05-08T09:26:47.084Z,4.10
2023-05-08T09:29:23.069Z,5.00
2023-05-08T09:31:57.216Z,4.60
2023-05-08T09:34:33.382Z,3.90
2023-05-08T09:37:16.858Z,5.90
2023-05-08T09:39:50.184Z,4.40
2023-05-08T09:42:25.447Z,5.20
2023-05-08T09:44:58.626Z,3.90
2023-05-08T09:47:32.120Z,4.00
2023-05-08T09:50:08.544Z,3.10
2023-05-08T09:52:48.998Z,5.20
2023-05-08T09:55:22.449Z,4.60
2023-05-08T09:57:59.903Z,4.20
2023-05-08T10:00:41.434Z,4.90
2023-05-08T10:03:14.678Z,4.20
2023-05-08T10:05:48.518Z,4.40
2023-05-08T10:08:46.738Z,4.20
2023-05-08T10:11:21.371Z,4.80
2023-05-08T10:13:54.620Z,5.30
2023-05-08T10:16:31.721Z,5.20
2023-05-08T10:19:11.387Z,4.90
2023-05-08T10:21:49.463Z,4.50
2023-05-08T10:24:33.955Z,4.40
2023-05-08T10:27:14.373Z,4.20
2023-05-08T10:30:01.778Z,5.60
2023-05-08T10:32:44.897Z,4.20
2023-05-08T10:35:20.081Z,5.00
2023-05-08T10:37:54.885Z,3.60
2023-05-08T10:40:28.525Z,5.60
2023-05-08T10:43:03.360Z,4.20
2023-05-08T10:45:38.262Z,4.00
2023-05-08T10:48:27.222Z,5.50
2023-05-08T10:51:11.269Z,5.20
2023-05-08T10:53:52.467Z,4.40
2023-05-08T10:56:31.088Z,3.90
2023-05-08T10:59:04.336Z,3.40
2023-05-08T11:01:41.382Z,3.40
2023-05-08T11:04:26.216Z,4.10
2023-05-08T11:07:00.210Z,3.80
2023-05-08T11:09:48.785Z,3.30
2023-05-08T11:12:27.187Z,3.40
2023-05-08T11:15:07.135Z,5.00
2023-05-08T11:17:46.724Z,4.20
2023-05-08T11:20:39.107Z,5.40
2023-05-08T11:37:08.346Z,4.70
2023-05-08T11:39:53.668Z,4.40
2023-05-08T11:42:39.876Z,4.00
2023-05-08T11:45:18.398Z,4.20
2023-05-08T11:48:03.939Z,5.30
2023-05-08T11:50:40.146Z,4.50
2023-05-08T11:53:14.025Z,4.10
2023-05-08T11:55:50.392Z,3.90
2023-05-08T11:58:25.004Z,4.50
2023-05-08T12:00:58.274Z,4.70
2023-05-08T12:03:31.879Z,3.40
2023-05-08T12:06:31.976Z,4.10
2023-05-08T12:09:14.687Z,3.30
2023-05-08T12:11:57.276Z,3.80
2023-05-08T12:14:30.676Z,3.20
2023-05-08T12:17:06.182Z,3.40
2023-05-08T12:19:39.442Z,3.20
2023-05-08T12:22:14.789Z,4.10
2023-05-08T12:24:48.078Z,3.60
2023-05-08T12:27:21.958Z,3.70
2023-05-08T12:29:55.156Z,3.60
2023-05-08T12:32:29.211Z,3.40
2023-05-08T12:35:03.382Z,3.00
2023-05-08T12:37:36.658Z,2.50
2023-05-08T12:40:27.452Z,3.30
2023-05-08T12:43:03.579Z,3.80
2023-05-08T12:45:40.108Z,3.60
2023-05-08T12:48:16.009Z,2.40
2023-05-08T12:50:50.048Z,3.50
2023-05-08T12:53:24.189Z,3.00
2023-05-08T12:55:59.525Z,3.90
2023-05-08T12:58:35.551Z,3.30
2023-05-08T13:01:13.062Z,2.40
2023-05-08T13:03:50.913Z,3.20
2023-05-08T13:06:32.724Z,2.10
2023-05-08T13:09:06.171Z,3.20
2023-05-08T13:11:39.680Z,3.90
2023-05-08T13:14:12.861Z,3.20
2023-05-08T13:16:49.346Z,3.00
2023-05-08T13:19:22.734Z,3.30
2023-05-08T13:21:55.925Z,2.30
2023-05-08T13:24:29.210Z,3.30
2023-05-08T13:27:03.325Z,2.80
2023-05-08T13:29:36.459Z,2.90
2023-05-08T13:32:10.085Z,2.20
2023-05-08T13:34:49.744Z,2.90
2023-05-08T13:37:24.392Z,3.40
2023-05-08T13:39:57.796Z,3.20
2023-05-08T13:42:31.077Z,3.30
2023-05-08T13:45:04.526Z,2.90
2023-05-08T13:47:38.255Z,2.50
2023-05-08T13:50:14.560Z,2.60
2023-05-08T13:52:47.794Z,3.10
2023-05-08T13:55:22.835Z,3.20
2023-05-08T13:57:56.269Z,2.30
2023-05-08T14:00:29.717Z,2.50
2023-05-08T14:03:03.131Z,3.20
2023-05-08T14:05:36.778Z,2.90
2023-05-08T14:08:10.980Z,2.50
2023-05-08T14:10:44.220Z,2.40
2023-05-08T14:13:17.627Z,2.70
2023-05-08T14:15:51.069Z,2.00
2023-05-08T14:18:24.305Z,2.90
2023-05-08T14:20:57.819Z,3.00
2023-05-08T14:23:31.258Z,2.90
2023-05-08T14:26:04.492Z,2.90
2023-05-08T14:28:37.767Z,2.90
2023-05-08T14:31:11.075Z,2.60
2023-05-08T14:33:44.437Z,2.70
2023-05-08T14:36:17.619Z,3.00
2023-05-08T14:38:51.346Z,3.10
2023-05-08T14:41:28.414Z,2.60
2023-05-08T14:44:02.014Z,2.30
2023-05-08T14:46:35.267Z,2.90
2023-05-08T14:49:08.534Z,2.90
2023-05-08T14:51:41.791Z,2.40
2023-05-08T14:54:15.170Z,2.90
2023-05-08T14:56:48.762Z,2.60
2023-05-08T14:59:22.264Z,2.90
2023-05-08T15:01:55.567Z,2.40
2023-05-08T15:04:29.188Z,2.50
2023-05-08T15:07:03.532Z,1.70
2023-05-08T15:09:36.902Z,2.60
2023-05-08T15:12:10.508Z,2.60
2023-05-08T16:27:28.833Z,2.50
2023-05-08T16:30:02.189Z,2.50
2023-05-08T16:32:35.458Z,2.30
2023-05-08T16:35:11.445Z,2.40
2023-05-08T16:37:45.210Z,2.30
2023-05-08T16:40:19.113Z,2.30
2023-05-08T16:42:52.315Z,2.10
2023-05-08T16:45:26.183Z,2.60
2023-05-08T16:47:59.501Z,2.20
2023-05-08T16:50:33.196Z,2.20
2023-05-08T16:53:06.959Z,2.10
2023-05-08T16:55:40.440Z,2.10
2023-05-08T16:58:13.668Z,2.80
2023-05-08T17:00:46.980Z,2.40
2023-05-08T17:03:20.583Z,2.70
2023-05-08T17:05:54.092Z,2.30
2023-05-08T17:08:27.491Z,2.70
2023-05-08T17:11:00.784Z,2.60
2023-05-08T17:13:34.239Z,2.70
2023-05-08T17:16:08.820Z,2.80
2023-05-08T17:18:42.209Z,2.40
2023-05-08T17:21:15.337Z,2.30
2023-05-08T17:23:48.491Z,3.30
2023-05-08T17:26:21.866Z,3.10
2023-05-08T17:28:55.280Z,2.20
2023-05-08T17:31:28.577Z,2.90
2023-05-08T17:34:02.149Z,2.50
2023-05-08T17:36:35.560Z,1.90
2023-05-08T17:39:08.742Z,2.60
2023-05-08T17:41:42.087Z,2.20
2023-05-08T17:44:15.280Z,2.60
2023-05-08T17:54:13.943Z,2.70
2023-05-08T17:56:43.414Z,2.50
2023-05-08T17:59:12.645Z,3.00
2023-05-08T18:01:41.826Z,3.00
2023-05-08T18:04:11.428Z,2.60
2023-05-08T18:06:42.662Z,2.70
2023-05-08T18:09:11.666Z,2.90
2023-05-08T18:11:40.952Z,3.00
2023-05-08T18:14:10.128Z,2.90
2023-05-08T18:16:39.218Z,3.20
2023-05-08T18:19:08.236Z,2.30
2023-05-08T18:21:37.243Z,2.10
2023-05-08T18:24:08.459Z,2.60
2023-05-08T18:26:37.850Z,2.90
2023-05-08T18:29:06.924Z,2.50
2023-05-08T18:31:36.186Z,3.00
2023-05-08T18:34:05.217Z,2.30
2023-05-08T18:36:34.270Z,2.50
2023-05-08T18:39:04.046Z,3.20
2023-05-08T18:41:33.054Z,2.70
2023-05-08T18:44:04.412Z,2.30
2023-05-08T18:46:33.520Z,1.90
2023-05-08T18:49:02.654Z,2.90
2023-05-08T18:51:31.706Z,3.00
2023-05-08T18:54:01.078Z,3.50
2023-05-08T18:56:31.775Z,3.00
2023-05-08T18:59:00.995Z,2.80
2023-05-08T19:01:30.174Z,1.80
2023-05-08T19:03:59.808Z,2.60
2023-05-08T19:06:29.055Z,2.50
2023-05-08T19:08:58.047Z,2.80
2023-05-08T19:11:27.130Z,2.90
2023-05-08T19:13:56.917Z,2.90
2023-05-08T19:16:26.399Z,3.50
2023-05-08T19:18:55.641Z,2.60
2023-05-08T19:21:24.757Z,3.10
2023-05-08T19:23:53.788Z,2.80
2023-05-08T19:26:22.775Z,3.20
2023-05-08T19:28:51.872Z,2.70
2023-05-08T19:31:20.902Z,2.70
2023-05-08T19:33:50.500Z,3.20
2023-05-08T19:36:19.470Z,3.20
2023-05-08T19:38:48.474Z,3.10
2023-05-08T19:41:17.445Z,3.10
2023-05-08T19:43:46.820Z,3.00
2023-05-08T19:46:15.916Z,2.90
2023-05-08T19:48:45.092Z,3.30
2023-05-08T19:51:15.609Z,2.80
2023-05-08T19:53:44.623Z,3.60
2023-05-08T19:56:13.690Z,2.80
2023-05-08T19:58:42.661Z,3.20
2023-05-08T20:01:11.663Z,3.40
2023-05-08T20:03:40.797Z,3.10
2023-05-08T20:06:10.160Z,3.20
2023-05-08T20:08:39.138Z,3.20
2023-05-08T20:11:11.047Z,3.70
2023-05-08T20:13:40.264Z,3.40
2023-05-08T20:16:09.908Z,3.00
2023-05-08T20:18:39.025Z,3.40
2023-05-08T20:21:08.306Z,3.80
2023-05-08T20:23:39.031Z,3.10
2023-05-08T20:26:08.221Z,3.20
2023-05-08T20:28:37.225Z,3.40
2023-05-08T20:31:06.322Z,3.70
2023-05-08T20:33:35.486Z,3.70
2023-05-08T20:36:05.372Z,3.20
2023-05-08T20:38:35.814Z,3.60
2023-05-08T20:41:05.409Z,3.20
2023-05-08T20:43:34.505Z,3.20
2023-05-08T20:46:04.004Z,3.30
2023-05-08T20:48:33.130Z,2.90
2023-05-08T20:51:02.160Z,3.30
2023-05-08T20:53:32.114Z,2.80
2023-05-08T20:56:05.660Z,2.90
2023-05-08T20:58:43.525Z,3.10
2023-05-08T21:01:12.737Z,2.90
2023-05-08T21:03:41.910Z,2.90
2023-05-08T21:06:10.956Z,3.20
2023-05-08T21:08:40.242Z,3.30
2023-05-08T21:11:10.739Z,3.10
2023-05-08T21:13:39.760Z,3.30
2023-05-08T21:16:09.280Z,2.60
2023-05-08T21:18:38.417Z,2.80
2023-05-08T21:21:16.405Z,3.50
2023-05-08T21:23:45.906Z,3.30
2023-05-08T21:26:14.981Z,3.30
2023-05-08T21:28:44.011Z,3.10
2023-05-08T21:31:13.039Z,3.10
2023-05-08T21:33:42.180Z,3.90
2023-05-08T21:36:11.174Z,2.90
2023-05-08T21:38:40.853Z,3.60
2023-05-08T21:41:10.150Z,2.80
2023-05-08T21:43:39.199Z,2.90
2023-05-08T21:46:08.652Z,3.20
2023-05-08T21:48:38.079Z,3.20
2023-05-08T21:51:07.424Z,4.00
2023-05-08T21:53:36.620Z,3.10
2023-05-08T21:56:06.698Z,5.10
2023-05-08T21:58:35.701Z,3.90
2023-05-08T22:01:05.207Z,3.90
2023-05-08T22:03:34.279Z,3.20
2023-05-08T22:06:04.159Z,3.60
2023-05-08T22:08:33.402Z,3.40
2023-05-08T22:11:02.455Z,4.00
2023-05-08T22:13:31.578Z,3.40
2023-05-08T22:16:00.710Z,3.80
2023-05-08T22:18:29.823Z,4.10
2023-05-08T22:20:59.138Z,3.70
2023-05-08T22:23:28.232Z,3.60
2023-05-08T22:25:57.323Z,3.30
2023-05-08T22:28:26.480Z,3.40
2023-05-08T22:30:55.565Z,3.50
2023-05-08T22:33:24.728Z,3.00
2023-05-08T22:35:53.731Z,3.30
2023-05-08T22:38:22.806Z,3.40
2023-05-08T22:40:52.424Z,3.30
2023-05-08T22:43:21.505Z,3.80
2023-05-08T22:45:50.714Z,2.90
2023-05-08T22:48:20.331Z,3.40
2023-05-08T22:50:50.291Z,2.90
2023-05-08T22:53:19.290Z,3.30
2023-05-08T22:55:48.412Z,3.80
2023-05-08T22:58:17.509Z,3.70
2023-05-08T23:00:46.493Z,3.60
2023-05-08T23:03:15.888Z,4.30
2023-05-08T23:05:44.958Z,3.70
2023-05-08T23:08:14.094Z,3.70
2023-05-08T23:10:44.387Z,4.20
2023-05-08T23:13:13.558Z,3.90
2023-05-08T23:15:42.748Z,2.50
2023-05-08T23:18:12.108Z,4.40
2023-05-08T23:20:41.413Z,3.40
2023-05-08T23:23:10.435Z,3.40
2023-05-08T23:25:39.604Z,3.80
2023-05-08T23:28:08.574Z,4.40
2023-05-08T23:30:37.640Z,3.50
2023-05-08T23:33:08.017Z,3.60
2023-05-08T23:35:37.217Z,3.10
2023-05-08T23:38:06.223Z,3.60
2023-05-08T23:40:35.522Z,3.90
2023-05-08T23:43:05.550Z,3.00
2023-05-08T23:45:34.592Z,3.20
2023-05-08T23:48:04.607Z,4.40
2023-05-08T23:50:33.942Z,3.40
2023-05-08T23:53:03.007Z,3.20
2023-05-08T23:55:34.362Z,3.90
2023-05-08T23:58:03.480Z,4.20
